sensor_id;sensor_type;location;lat;lon;timestamp;pressure;altitude;pressure_sealevel;temperature;humidity
8280;BME280;8335;42.646;23.380;2024-01-15T00:00:15;141206.78;;;-1.74;82.98
8280;BME280;8335;42.646;23.380;2024-01-15T00:02:42;141184.66;;;-1.83;83.31
8280;BME280;8335;42.646;23.380;2024-01-15T00:05:09;141201.88;;;-1.76;82.74
8280;BME280;8335;42.646;23.380;2024-01-15T00:07:35;141204.34;;;-1.75;82.84
8280;BME280;8335;42.646;23.380;2024-01-15T00:10:02;141203.09;;;-1.76;83.42
8280;BME280;8335;42.646;23.380;2024-01-15T00:12:29;141198.19;;;-1.78;83.26
8280;BME280;8335;42.646;23.380;2024-01-15T00:14:57;141200.66;;;-1.77;83.62
8280;BME280;8335;42.646;23.380;2024-01-15T00:17:24;141211.69;;;-1.72;83.60
8280;BME280;8335;42.646;23.380;2024-01-15T00:19:51;141199.44;;;-1.77;83.94
8280;BME280;8335;42.646;23.380;2024-01-15T00:22:18;141201.88;;;-1.76;84.08
8280;BME280;8335;42.646;23.380;2024-01-15T00:24:45;141206.78;;;-1.74;84.23
8280;BME280;8335;42.646;23.380;2024-01-15T00:27:11;141209.25;;;-1.73;84.71
8280;BME280;8335;42.646;23.380;2024-01-15T00:29:38;141196.97;;;-1.78;84.66
8280;BME280;8335;42.646;23.380;2024-01-15T00:32:06;141183.44;;;-1.84;84.95
8280;BME280;8335;42.646;23.380;2024-01-15T00:34:33;141174.81;;;-1.87;85.35
8280;BME280;8335;42.646;23.380;2024-01-15T00:37:00;141179.75;;;-1.85;85.50
8280;BME280;8335;42.646;23.380;2024-01-15T00:39:26;141169.91;;;-1.89;85.58
8280;BME280;8335;42.646;23.380;2024-01-15T00:41:53;141166.22;;;-1.91;86.42
8280;BME280;8335;42.646;23.380;2024-01-15T00:44:20;141163.78;;;-1.92;86.28
8280;BME280;8335;42.646;23.380;2024-01-15T00:46:47;141150.22;;;-1.98;86.65
8280;BME280;8335;42.646;23.380;2024-01-15T00:49:15;141155.13;;;-1.96;86.67
8280;BME280;8335;42.646;23.380;2024-01-15T00:51:42;141149.00;;;-1.98;87.11
8280;BME280;8335;42.646;23.380;2024-01-15T00:54:08;141147.78;;;-1.99;87.55
8280;BME280;8335;42.646;23.380;2024-01-15T00:56:36;141125.63;;;-2.08;87.42
8280;BME280;8335;42.646;23.380;2024-01-15T00:59:03;141137.94;;;-2.03;87.78
8280;BME280;8335;42.646;23.380;2024-01-15T01:01:29;141141.59;;;-2.01;87.42
8280;BME280;8335;42.646;23.380;2024-01-15T01:03:56;141130.56;;;-2.06;87.86
8280;BME280;8335;42.646;23.380;2024-01-15T01:06:24;141130.56;;;-2.06;88.15
8280;BME280;8335;42.646;23.380;2024-01-15T01:08:51;141123.16;;;-2.09;88.99
8280;BME280;8335;42.646;23.380;2024-01-15T01:11:18;141102.28;;;-2.17;88.70
8280;BME280;8335;42.646;23.380;2024-01-15T01:13:44;141115.81;;;-2.12;88.28
8280;BME280;8335;42.646;23.380;2024-01-15T01:16:11;141104.72;;;-2.16;88.43
8280;BME280;8335;42.646;23.380;2024-01-15T01:18:38;141092.41;;;-2.22;89.25
8280;BME280;8335;42.646;23.380;2024-01-15T01:21:04;141085.06;;;-2.25;88.71
8280;BME280;8335;42.646;23.380;2024-01-15T01:23:32;141070.31;;;-2.31;89.10
8280;BME280;8335;42.646;23.380;2024-01-15T01:25:59;141073.97;;;-2.29;89.75
8280;BME280;8335;42.646;23.380;2024-01-15T01:28:26;141080.16;;;-2.27;90.38
8280;BME280;8335;42.646;23.380;2024-01-15T01:30:52;141080.16;;;-2.27;90.39
8280;BME280;8335;42.646;23.380;2024-01-15T01:33:19;141055.56;;;-2.37;91.20
8280;BME280;8335;42.646;23.380;2024-01-15T01:35:46;141050.66;;;-2.39;91.41
8280;BME280;8335;42.646;23.380;2024-01-15T01:38:13;140898.28;;;-3.02;91.51
8280;BME280;8335;42.646;23.380;2024-01-15T01:40:41;141053.09;;;-2.38;92.32
8280;BME280;8335;42.646;23.380;2024-01-15T01:43:09;141050.66;;;-2.39;92.34
8280;BME280;8335;42.646;23.380;2024-01-15T01:45:36;141028.53;;;-2.48;92.50
8280;BME280;8335;42.646;23.380;2024-01-15T01:48:04;141045.75;;;-2.41;92.29
8280;BME280;8335;42.646;23.380;2024-01-15T01:50:31;141045.75;;;-2.41;92.32
8280;BME280;8335;42.646;23.380;2024-01-15T01:52:58;141042.06;;;-2.42;92.77
8280;BME280;8335;42.646;23.380;2024-01-15T01:55:26;141028.53;;;-2.48;93.56
8280;BME280;8335;42.646;23.380;2024-01-15T01:57:55;141042.06;;;-2.42;93.08
8280;BME280;8335;42.646;23.380;2024-01-15T02:00:22;141035.91;;;-2.45;92.93
8280;BME280;8335;42.646;23.380;2024-01-15T02:02:49;141049.41;;;-2.39;92.60
8280;BME280;8335;42.646;23.380;2024-01-15T02:05:18;141049.41;;;-2.39;91.86
8280;BME280;8335;42.646;23.380;2024-01-15T02:07:45;141008.88;;;-2.56;92.17
8280;BME280;8335;42.646;23.380;2024-01-15T02:10:12;141050.66;;;-2.39;91.31
8280;BME280;8335;42.646;23.380;2024-01-15T02:12:39;141045.75;;;-2.41;91.00
8280;BME280;8335;42.646;23.380;2024-01-15T02:15:07;141032.22;;;-2.46;91.50
8280;BME280;8335;42.646;23.380;2024-01-15T02:17:34;141042.06;;;-2.42;91.05
8280;BME280;8335;42.646;23.380;2024-01-15T02:20:01;141045.75;;;-2.41;91.10
8280;BME280;8335;42.646;23.380;2024-01-15T02:22:27;141048.19;;;-2.40;90.79
8280;BME280;8335;42.646;23.380;2024-01-15T02:24:55;141065.41;;;-2.33;90.21
8280;BME280;8335;42.646;23.380;2024-01-15T02:27:22;141067.84;;;-2.32;89.96
8280;BME280;8335;42.646;23.380;2024-01-15T02:29:49;141078.94;;;-2.27;89.75
8280;BME280;8335;42.646;23.380;2024-01-15T02:32:16;141078.94;;;-2.27;89.16
8280;BME280;8335;42.646;23.380;2024-01-15T02:34:43;141080.16;;;-2.27;89.54
8280;BME280;8335;42.646;23.380;2024-01-15T02:37:09;141081.38;;;-2.26;89.13
8280;BME280;8335;42.646;23.380;2024-01-15T02:39:36;141096.16;;;-2.20;89.13
8280;BME280;8335;42.646;23.380;2024-01-15T02:42:05;141107.19;;;-2.15;89.19
8280;BME280;8335;42.646;23.380;2024-01-15T02:44:32;141130.56;;;-2.06;87.78
8280;BME280;8335;42.646;23.380;2024-01-15T02:46:58;141144.06;;;-2.00;87.21
8280;BME280;8335;42.646;23.380;2024-01-15T02:49:25;141162.53;;;-1.92;86.54
8280;BME280;8335;42.646;23.380;2024-01-15T02:51:52;141166.22;;;-1.91;86.09
8280;BME280;8335;42.646;23.380;2024-01-15T02:54:18;141171.13;;;-1.89;85.76
8280;BME280;8335;42.646;23.380;2024-01-15T02:56:45;141172.34;;;-1.88;86.14
8280;BME280;8335;42.646;23.380;2024-01-15T02:59:13;141184.66;;;-1.83;85.98
8280;BME280;8335;42.646;23.380;2024-01-15T03:01:40;141204.34;;;-1.75;85.40
8280;BME280;8335;42.646;23.380;2024-01-15T03:04:06;141216.66;;;-1.70;85.49
8280;BME280;8335;42.646;23.380;2024-01-15T03:06:33;141242.44;;;-1.59;85.04
8280;BME280;8335;42.646;23.380;2024-01-15T03:09:00;141247.38;;;-1.57;84.98
8280;BME280;8335;42.646;23.380;2024-01-15T03:11:27;141264.59;;;-1.50;85.08
8280;BME280;8335;42.646;23.380;2024-01-15T03:13:53;141279.34;;;-1.44;84.68
8280;BME280;8335;42.646;23.380;2024-01-15T03:16:21;141292.88;;;-1.39;84.59
8280;BME280;8335;42.646;23.380;2024-01-15T03:18:48;141300.31;;;-1.35;84.43
8280;BME280;8335;42.646;23.380;2024-01-15T03:21:15;141308.88;;;-1.32;84.24
8280;BME280;8335;42.646;23.380;2024-01-15T03:23:41;141270.75;;;-1.48;84.22
8280;BME280;8335;42.646;23.380;2024-01-15T03:26:08;141216.66;;;-1.70;83.63
8280;BME280;8335;42.646;23.380;2024-01-15T03:28:35;141193.25;;;-1.80;84.13
8280;BME280;8335;42.646;23.380;2024-01-15T03:31:01;141169.91;;;-1.89;84.86
8280;BME280;8335;42.646;23.380;2024-01-15T03:33:29;141142.81;;;-2.01;85.03
8280;BME280;8335;42.646;23.380;2024-01-15T03:35:56;141135.47;;;-2.04;85.86
8280;BME280;8335;42.646;23.380;2024-01-15T03:38:23;141105.94;;;-2.16;85.73
8280;BME280;8335;42.646;23.380;2024-01-15T03:40:50;141160.03;;;-1.94;85.58
8280;BME280;8335;42.646;23.380;2024-01-15T03:43:16;141158.81;;;-1.94;85.60
8280;BME280;8335;42.646;23.380;2024-01-15T03:45:43;141140.38;;;-2.02;87.11
8280;BME280;8335;42.646;23.380;2024-01-15T03:48:11;141135.47;;;-2.04;88.07
8280;BME280;8335;42.646;23.380;2024-01-15T03:50:39;141133.03;;;-2.05;87.90
8280;BME280;8335;42.646;23.380;2024-01-15T03:53:06;141119.50;;;-2.10;88.68
8280;BME280;8335;42.646;23.380;2024-01-15T03:55:32;141118.25;;;-2.11;88.81
8280;BME280;8335;42.646;23.380;2024-01-15T03:57:59;141120.72;;;-2.10;88.26
8280;BME280;8335;42.646;23.380;2024-01-15T04:00:26;141128.13;;;-2.07;89.06
8280;BME280;8335;42.646;23.380;2024-01-15T04:02:53;141123.16;;;-2.09;89.26
8280;BME280;8335;42.646;23.380;2024-01-15T04:05:20;141119.50;;;-2.10;88.65
8280;BME280;8335;42.646;23.380;2024-01-15T04:07:48;141119.50;;;-2.10;89.10
8280;BME280;8335;42.646;23.380;2024-01-15T04:10:15;141119.50;;;-2.10;89.21
8280;BME280;8335;42.646;23.380;2024-01-15T04:12:41;141123.16;;;-2.09;89.14
8280;BME280;8335;42.646;23.380;2024-01-15T04:15:08;141133.03;;;-2.05;89.45
8280;BME280;8335;42.646;23.380;2024-01-15T04:17:35;141130.56;;;-2.06;89.20
8280;BME280;8335;42.646;23.380;2024-01-15T04:20:02;141117.03;;;-2.11;90.11
8280;BME280;8335;42.646;23.380;2024-01-15T04:22:29;141105.94;;;-2.16;90.36
8280;BME280;8335;42.646;23.380;2024-01-15T04:24:57;141119.50;;;-2.10;89.62
8280;BME280;8335;42.646;23.380;2024-01-15T04:27:24;141112.13;;;-2.13;89.45
8280;BME280;8335;42.646;23.380;2024-01-15T04:29:51;141080.16;;;-2.27;90.83
8280;BME280;8335;42.646;23.380;2024-01-15T04:32:18;141091.19;;;-2.22;90.78
8280;BME280;8335;42.646;23.380;2024-01-15T04:34:45;141088.75;;;-2.23;91.63
8280;BME280;8335;42.646;23.380;2024-01-15T04:37:13;141098.59;;;-2.19;91.98
8280;BME280;8335;42.646;23.380;2024-01-15T04:39:39;141070.31;;;-2.31;91.02
8280;BME280;8335;42.646;23.380;2024-01-15T04:42:07;141105.94;;;-2.16;90.18
8280;BME280;8335;42.646;23.380;2024-01-15T04:44:34;141108.41;;;-2.15;90.73
8280;BME280;8335;42.646;23.380;2024-01-15T04:47:01;141108.41;;;-2.15;90.13
8280;BME280;8335;42.646;23.380;2024-01-15T04:49:28;141094.91;;;-2.20;90.35
8280;BME280;8335;42.646;23.380;2024-01-15T04:51:55;141085.06;;;-2.25;90.06
8280;BME280;8335;42.646;23.380;2024-01-15T04:54:22;141070.31;;;-2.31;90.54
8280;BME280;8335;42.646;23.380;2024-01-15T04:56:48;141077.72;;;-2.28;90.71
8280;BME280;8335;42.646;23.380;2024-01-15T04:59:16;141077.72;;;-2.28;90.40
8280;BME280;8335;42.646;23.380;2024-01-15T05:01:43;141069.09;;;-2.31;90.34
8280;BME280;8335;42.646;23.380;2024-01-15T05:04:10;141073.97;;;-2.29;90.62
8280;BME280;8335;42.646;23.380;2024-01-15T05:06:36;141073.97;;;-2.29;90.70
8280;BME280;8335;42.646;23.380;2024-01-15T05:09:03;141064.19;;;-2.33;91.79
8280;BME280;8335;42.646;23.380;2024-01-15T05:11:30;141066.63;;;-2.32;91.47
8280;BME280;8335;42.646;23.380;2024-01-15T05:13:56;141065.41;;;-2.33;90.53
8280;BME280;8335;42.646;23.380;2024-01-15T05:16:24;141075.22;;;-2.29;90.60
8280;BME280;8335;42.646;23.380;2024-01-15T05:18:51;141062.94;;;-2.34;90.28
8280;BME280;8335;42.646;23.380;2024-01-15T05:21:18;141046.97;;;-2.40;90.94
8280;BME280;8335;42.646;23.380;2024-01-15T05:23:45;141066.63;;;-2.32;91.11
8280;BME280;8335;42.646;23.380;2024-01-15T05:26:11;141075.22;;;-2.29;90.54
8280;BME280;8335;42.646;23.380;2024-01-15T05:28:38;141062.94;;;-2.34;91.29
8280;BME280;8335;42.646;23.380;2024-01-15T05:31:07;141048.19;;;-2.40;92.22
8280;BME280;8335;42.646;23.380;2024-01-15T05:33:35;141071.53;;;-2.30;91.38
8280;BME280;8335;42.646;23.380;2024-01-15T05:36:02;141070.31;;;-2.31;91.47
8280;BME280;8335;42.646;23.380;2024-01-15T05:38:28;141075.22;;;-2.29;91.85
8280;BME280;8335;42.646;23.380;2024-01-15T05:40:55;141082.63;;;-2.26;91.83
8280;BME280;8335;42.646;23.380;2024-01-15T05:43:22;141092.41;;;-2.22;91.32
8280;BME280;8335;42.646;23.380;2024-01-15T05:45:48;141096.16;;;-2.20;91.53
8280;BME280;8335;42.646;23.380;2024-01-15T05:48:15;141102.28;;;-2.17;91.03
8280;BME280;8335;42.646;23.380;2024-01-15T05:50:43;141102.28;;;-2.17;91.15
8280;BME280;8335;42.646;23.380;2024-01-15T05:53:10;141082.63;;;-2.26;91.67
8280;BME280;8335;42.646;23.380;2024-01-15T05:55:36;141101.06;;;-2.18;91.41
8280;BME280;8335;42.646;23.380;2024-01-15T05:58:03;141102.28;;;-2.17;91.85
8280;BME280;8335;42.646;23.380;2024-01-15T06:00:30;141105.94;;;-2.16;91.25
8280;BME280;8335;42.646;23.380;2024-01-15T06:02:58;141103.50;;;-2.17;90.84
8280;BME280;8335;42.646;23.380;2024-01-15T06:05:25;141107.19;;;-2.15;90.46
8280;BME280;8335;42.646;23.380;2024-01-15T06:07:53;141108.41;;;-2.15;91.42
8280;BME280;8335;42.646;23.380;2024-01-15T06:10:20;141112.13;;;-2.13;91.46
8280;BME280;8335;42.646;23.380;2024-01-15T06:12:46;141123.16;;;-2.09;91.02
8280;BME280;8335;42.646;23.380;2024-01-15T06:15:13;141115.81;;;-2.12;91.14
8280;BME280;8335;42.646;23.380;2024-01-15T06:17:40;141104.72;;;-2.16;91.72
8280;BME280;8335;42.646;23.380;2024-01-15T06:20:08;141119.50;;;-2.10;92.32
8280;BME280;8335;42.646;23.380;2024-01-15T06:22:35;141163.78;;;-1.92;92.97
8280;BME280;8335;42.646;23.380;2024-01-15T06:25:06;141254.78;;;-1.54;92.60
8280;BME280;8335;42.646;23.380;2024-01-15T06:27:33;141375.34;;;-1.04;90.82
8280;BME280;8335;42.646;23.380;2024-01-15T06:30:00;141486.09;;;-0.59;87.78
8280;BME280;8335;42.646;23.380;2024-01-15T06:32:27;141541.53;;;-0.36;84.96
8280;BME280;8335;42.646;23.380;2024-01-15T06:34:54;141578.47;;;-0.20;83.44
8280;BME280;8335;42.646;23.380;2024-01-15T06:37:21;141608.00;;;-0.08;82.38
8280;BME280;8335;42.646;23.380;2024-01-15T06:39:47;141614.19;;;-0.06;81.27
8280;BME280;8335;42.646;23.380;2024-01-15T06:42:15;141603.09;;;-0.10;81.09
8280;BME280;8335;42.646;23.380;2024-01-15T06:44:42;141627.75;;;0.00;80.87
8280;BME280;8335;42.646;23.380;2024-01-15T06:47:09;141679.47;;;0.21;79.74
8280;BME280;8335;42.646;23.380;2024-01-15T06:49:36;141778.06;;;0.62;77.77
8280;BME280;8335;42.646;23.380;2024-01-15T06:52:03;141849.53;;;0.92;76.69
8280;BME280;8335;42.646;23.380;2024-01-15T06:54:30;141864.34;;;0.98;75.19
8280;BME280;8335;42.646;23.380;2024-01-15T06:56:57;141901.31;;;1.13;73.94
8280;BME280;8335;42.646;23.380;2024-01-15T06:59:25;141926.03;;;1.23;73.53
8280;BME280;8335;42.646;23.380;2024-01-15T07:01:51;141933.41;;;1.26;72.97
8280;BME280;8335;42.646;23.380;2024-01-15T07:04:18;141946.97;;;1.32;73.48
8280;BME280;8335;42.646;23.380;2024-01-15T07:06:45;141921.06;;;1.21;73.72
8280;BME280;8335;42.646;23.380;2024-01-15T07:09:13;141935.84;;;1.27;74.65
8280;BME280;8335;42.646;23.380;2024-01-15T07:11:44;141955.59;;;1.35;74.31
8280;BME280;8335;42.646;23.380;2024-01-15T07:14:11;141956.84;;;1.36;74.58
8280;BME280;8335;42.646;23.380;2024-01-15T07:16:39;141955.59;;;1.35;74.55
8280;BME280;8335;42.646;23.380;2024-01-15T07:19:05;141958.09;;;1.36;74.46
8280;BME280;8335;42.646;23.380;2024-01-15T07:21:32;141956.84;;;1.36;74.73
8280;BME280;8335;42.646;23.380;2024-01-15T07:23:59;141943.28;;;1.30;74.92
8280;BME280;8335;42.646;23.380;2024-01-15T07:26:26;141932.16;;;1.26;75.00
8280;BME280;8335;42.646;23.380;2024-01-15T07:28:53;141914.91;;;1.19;75.79
8280;BME280;8335;42.646;23.380;2024-01-15T07:31:19;141903.78;;;1.14;75.50
8280;BME280;8335;42.646;23.380;2024-01-15T07:33:48;141845.84;;;0.90;75.72
8280;BME280;8335;42.646;23.380;2024-01-15T07:36:14;141843.41;;;0.89;76.69
8280;BME280;8335;42.646;23.380;2024-01-15T07:38:41;141838.47;;;0.87;77.31
8280;BME280;8335;42.646;23.380;2024-01-15T07:41:08;141779.28;;;0.63;77.69
8280;BME280;8335;42.646;23.380;2024-01-15T07:43:35;141789.16;;;0.67;78.78
8280;BME280;8335;42.646;23.380;2024-01-15T07:46:01;141769.44;;;0.59;78.75
8280;BME280;8335;42.646;23.380;2024-01-15T07:48:28;141754.66;;;0.52;79.79
8280;BME280;8335;42.646;23.380;2024-01-15T07:50:56;141767.00;;;0.58;79.36
8280;BME280;8335;42.646;23.380;2024-01-15T07:53:23;141778.06;;;0.62;79.68
8280;BME280;8335;42.646;23.380;2024-01-15T07:55:50;141791.63;;;0.68;79.15
8280;BME280;8335;42.646;23.380;2024-01-15T07:58:16;141738.63;;;0.46;78.88
8280;BME280;8335;42.646;23.380;2024-01-15T08:00:43;141715.22;;;0.36;80.27
8280;BME280;8335;42.646;23.380;2024-01-15T08:03:10;141736.16;;;0.45;80.60
8280;BME280;8335;42.646;23.380;2024-01-15T08:05:37;141738.63;;;0.46;80.03
8280;BME280;8335;42.646;23.380;2024-01-15T08:08:05;141748.47;;;0.50;79.50
8280;BME280;8335;42.646;23.380;2024-01-15T08:10:32;141758.34;;;0.54;78.19
8280;BME280;8335;42.646;23.380;2024-01-15T08:12:59;141752.19;;;0.51;79.99
8280;BME280;8335;42.646;23.380;2024-01-15T08:15:25;141774.38;;;0.61;79.49
8280;BME280;8335;42.646;23.380;2024-01-15T08:17:52;141764.50;;;0.57;78.67
8280;BME280;8335;42.646;23.380;2024-01-15T08:20:19;141821.22;;;0.80;78.26
8280;BME280;8335;42.646;23.380;2024-01-15T08:22:46;141887.81;;;1.07;75.09
8280;BME280;8335;42.646;23.380;2024-01-15T08:25:15;141935.84;;;1.27;74.40
8280;BME280;8335;42.646;23.380;2024-01-15T08:27:41;141992.63;;;1.51;72.97
8280;BME280;8335;42.646;23.380;2024-01-15T08:30:09;142017.28;;;1.61;72.53
8280;BME280;8335;42.646;23.380;2024-01-15T08:32:37;142049.34;;;1.74;71.73
8280;BME280;8335;42.646;23.380;2024-01-15T08:35:07;142092.53;;;1.92;72.81
8280;BME280;8335;42.646;23.380;2024-01-15T08:37:34;142130.81;;;2.08;70.94
8280;BME280;8335;42.646;23.380;2024-01-15T08:40:01;142178.91;;;2.28;70.94
8280;BME280;8335;42.646;23.380;2024-01-15T08:42:29;142183.88;;;2.30;69.57
8280;BME280;8335;42.646;23.380;2024-01-15T08:44:56;142256.72;;;2.60;68.75
8280;BME280;8335;42.646;23.380;2024-01-15T08:47:23;142364.16;;;3.04;67.66
8280;BME280;8335;42.646;23.380;2024-01-15T08:49:51;142509.91;;;3.64;65.84
8280;BME280;8335;42.646;23.380;2024-01-15T08:52:17;142657.03;;;4.25;63.05
8280;BME280;8335;42.646;23.380;2024-01-15T08:54:45;142831.44;;;4.96;60.91
8280;BME280;8335;42.646;23.380;2024-01-15T08:57:12;143009.66;;;5.70;59.11
8280;BME280;8335;42.646;23.380;2024-01-15T08:59:40;143185.53;;;6.42;56.90
8280;BME280;8335;42.646;23.380;2024-01-15T09:02:07;143319.38;;;6.97;56.37
8280;BME280;8335;42.646;23.380;2024-01-15T09:04:34;143510.31;;;7.76;53.55
8280;BME280;8335;42.646;23.380;2024-01-15T09:07:01;143631.88;;;8.25;51.43
8280;BME280;8335;42.646;23.380;2024-01-15T09:09:28;143811.88;;;8.99;48.98
8280;BME280;8335;42.646;23.380;2024-01-15T09:11:55;143933.56;;;9.49;46.43
8280;BME280;8335;42.646;23.380;2024-01-15T09:14:22;144057.84;;;10.00;45.34
8280;BME280;8335;42.646;23.380;2024-01-15T09:16:51;144151.06;;;10.38;43.79
8280;BME280;8335;42.646;23.380;2024-01-15T09:19:17;144177.16;;;10.49;42.89
8280;BME280;8335;42.646;23.380;2024-01-15T09:21:44;144091.34;;;10.14;43.63
8280;BME280;8335;42.646;23.380;2024-01-15T09:24:11;143896.31;;;9.34;46.61
8280;BME280;8335;42.646;23.380;2024-01-15T09:26:37;143595.91;;;8.11;47.59
8280;BME280;8335;42.646;23.380;2024-01-15T09:29:04;143457.00;;;7.54;50.23
8280;BME280;8335;42.646;23.380;2024-01-15T09:31:31;143368.97;;;7.17;50.33
8280;BME280;8335;42.646;23.380;2024-01-15T09:33:59;143240.09;;;6.65;52.60
8280;BME280;8335;42.646;23.380;2024-01-15T09:36:27;143205.41;;;6.50;52.29
8280;BME280;8335;42.646;23.380;2024-01-15T09:38:54;143043.09;;;5.84;53.19
8280;BME280;8335;42.646;23.380;2024-01-15T09:41:21;143022.03;;;5.75;55.62
8280;BME280;8335;42.646;23.380;2024-01-15T09:43:48;142929.22;;;5.37;56.14
8280;BME280;8335;42.646;23.380;2024-01-15T09:46:15;142934.16;;;5.39;57.56
8280;BME280;8335;42.646;23.380;2024-01-15T09:48:43;142890.81;;;5.21;57.69
8280;BME280;8335;42.646;23.380;2024-01-15T09:51:11;142854.94;;;5.06;58.31
8280;BME280;8335;42.646;23.380;2024-01-15T09:53:39;142777.00;;;4.74;59.30
8280;BME280;8335;42.646;23.380;2024-01-15T09:56:06;142648.34;;;4.21;60.95
8280;BME280;8335;42.646;23.380;2024-01-15T09:58:34;142596.44;;;4.00;61.97
8280;BME280;8335;42.646;23.380;2024-01-15T10:01:02;142472.84;;;3.49;63.65
8280;BME280;8335;42.646;23.380;2024-01-15T10:03:29;142463.00;;;3.45;64.51
8280;BME280;8335;42.646;23.380;2024-01-15T10:05:59;142416.03;;;3.25;64.21
8280;BME280;8335;42.646;23.380;2024-01-15T10:08:27;142423.41;;;3.28;64.43
8280;BME280;8335;42.646;23.380;2024-01-15T10:10:54;142428.38;;;3.30;63.76
8280;BME280;8335;42.646;23.380;2024-01-15T10:13:22;142378.97;;;3.10;64.15
8280;BME280;8335;42.646;23.380;2024-01-15T10:15:49;142355.53;;;3.00;64.39
8280;BME280;8335;42.646;23.380;2024-01-15T10:18:15;142341.91;;;2.95;65.01
8280;BME280;8335;42.646;23.380;2024-01-15T10:20:42;142280.16;;;2.69;65.21
8280;BME280;8335;42.646;23.380;2024-01-15T10:23:09;142274.00;;;2.67;66.74
8280;BME280;8335;42.646;23.380;2024-01-15T10:25:37;142259.16;;;2.61;66.00
8280;BME280;8335;42.646;23.380;2024-01-15T10:28:04;142278.91;;;2.69;66.68
8280;BME280;8335;42.646;23.380;2024-01-15T10:30:32;142280.16;;;2.69;66.34
8280;BME280;8335;42.646;23.380;2024-01-15T10:33:00;142262.88;;;2.62;66.50
8280;BME280;8335;42.646;23.380;2024-01-15T10:35:28;142243.13;;;2.54;67.24
8280;BME280;8335;42.646;23.380;2024-01-15T10:37:55;142133.28;;;2.09;68.30
8280;BME280;8335;42.646;23.380;2024-01-15T10:40:22;142212.25;;;2.41;69.47
8280;BME280;8335;42.646;23.380;2024-01-15T10:42:50;142212.25;;;2.41;68.31
8280;BME280;8335;42.646;23.380;2024-01-15T10:45:17;142236.97;;;2.52;66.66
8280;BME280;8335;42.646;23.380;2024-01-15T10:47:44;142253.03;;;2.58;66.72
8280;BME280;8335;42.646;23.380;2024-01-15T10:50:12;142272.75;;;2.66;67.08
8280;BME280;8335;42.646;23.380;2024-01-15T10:52:39;142301.13;;;2.78;65.78
8280;BME280;8335;42.646;23.380;2024-01-15T10:55:07;142339.47;;;2.94;65.56
8280;BME280;8335;42.646;23.380;2024-01-15T10:57:34;142357.97;;;3.01;65.42
8280;BME280;8335;42.646;23.380;2024-01-15T11:00:03;142401.19;;;3.19;64.70
8280;BME280;8335;42.646;23.380;2024-01-15T11:02:31;142392.56;;;3.16;65.82
8280;BME280;8335;42.646;23.380;2024-01-15T11:04:58;142357.97;;;3.01;64.90
8280;BME280;8335;42.646;23.380;2024-01-15T11:07:26;142420.94;;;3.27;64.80
8280;BME280;8335;42.646;23.380;2024-01-15T11:09:53;142409.88;;;3.23;64.82
8280;BME280;8335;42.646;23.380;2024-01-15T11:12:19;142396.25;;;3.17;64.55
8280;BME280;8335;42.646;23.380;2024-01-15T11:14:47;142435.78;;;3.34;64.33
8280;BME280;8335;42.646;23.380;2024-01-15T11:17:16;142479.06;;;3.51;63.43
8280;BME280;8335;42.646;23.380;2024-01-15T11:19:45;142500.06;;;3.60;62.86
8280;BME280;8335;42.646;23.380;2024-01-15T11:25:13;142553.19;;;3.82;62.68
8280;BME280;8335;42.646;23.380;2024-01-15T11:27:41;142572.97;;;3.90;63.07
8280;BME280;8335;42.646;23.380;2024-01-15T11:30:09;142566.81;;;3.88;62.55
8280;BME280;8335;42.646;23.380;2024-01-15T11:32:38;142605.09;;;4.03;62.66
8280;BME280;8335;42.646;23.380;2024-01-15T11:35:07;142639.72;;;4.18;62.02
8280;BME280;8335;42.646;23.380;2024-01-15T11:37:58;142673.13;;;4.31;60.65
8280;BME280;8335;42.646;23.380;2024-01-15T11:40:38;142705.28;;;4.45;60.74
8280;BME280;8335;42.646;23.380;2024-01-15T11:43:05;142676.81;;;4.33;61.14
8280;BME280;8335;42.646;23.380;2024-01-15T11:45:34;142706.50;;;4.45;60.83
8280;BME280;8335;42.646;23.380;2024-01-15T11:48:16;142731.22;;;4.55;60.96
8280;BME280;8335;42.646;23.380;2024-01-15T11:50:44;142701.56;;;4.43;61.05
8280;BME280;8335;42.646;23.380;2024-01-15T11:53:16;142675.59;;;4.32;61.56
8280;BME280;8335;42.646;23.380;2024-01-15T11:55:44;142694.13;;;4.40;61.69
8280;BME280;8335;42.646;23.380;2024-01-15T11:58:14;142638.50;;;4.17;62.64
8280;BME280;8335;42.646;23.380;2024-01-15T12:00:43;142650.88;;;4.22;62.54
8280;BME280;8335;42.646;23.380;2024-01-15T12:03:10;142657.03;;;4.25;63.65
8280;BME280;8335;42.646;23.380;2024-01-15T12:05:38;142639.72;;;4.18;63.32
8280;BME280;8335;42.646;23.380;2024-01-15T12:08:07;142648.34;;;4.21;63.91
8280;BME280;8335;42.646;23.380;2024-01-15T12:10:36;142627.34;;;4.12;65.23
8280;BME280;8335;42.646;23.380;2024-01-15T12:13:05;142627.34;;;4.12;65.20
8280;BME280;8335;42.646;23.380;2024-01-15T12:15:32;142601.41;;;4.02;66.33
8280;BME280;8335;42.646;23.380;2024-01-15T12:18:00;142600.19;;;4.01;66.99
8280;BME280;8335;42.646;23.380;2024-01-15T12:20:28;142624.88;;;4.11;66.17
8280;BME280;8335;42.646;23.380;2024-01-15T12:22:57;142671.88;;;4.31;65.82
8280;BME280;8335;42.646;23.380;2024-01-15T12:25:24;142702.81;;;4.44;66.08
8280;BME280;8335;42.646;23.380;2024-01-15T12:27:53;142733.69;;;4.56;65.70
8280;BME280;8335;42.646;23.380;2024-01-15T12:30:20;142747.31;;;4.62;64.59
8280;BME280;8335;42.646;23.380;2024-01-15T12:32:47;142737.44;;;4.58;64.83
8280;BME280;8335;42.646;23.380;2024-01-15T12:35:14;142759.69;;;4.67;65.22
8280;BME280;8335;42.646;23.380;2024-01-15T12:37:42;142784.41;;;4.77;64.50
8280;BME280;8335;42.646;23.380;2024-01-15T12:40:10;142793.09;;;4.81;64.23
8280;BME280;8335;42.646;23.380;2024-01-15T12:42:37;142811.66;;;4.88;63.51
8280;BME280;8335;42.646;23.380;2024-01-15T12:45:07;142815.34;;;4.90;63.80
8280;BME280;8335;42.646;23.380;2024-01-15T12:47:34;142812.88;;;4.89;63.83
8280;BME280;8335;42.646;23.380;2024-01-15T12:50:00;142810.41;;;4.88;63.98
8280;BME280;8335;42.646;23.380;2024-01-15T12:52:27;142819.06;;;4.91;63.64
8280;BME280;8335;42.646;23.380;2024-01-15T12:54:54;142805.47;;;4.86;63.86
8280;BME280;8335;42.646;23.380;2024-01-15T12:57:22;142816.59;;;4.90;64.32
8280;BME280;8335;42.646;23.380;2024-01-15T12:59:49;142814.13;;;4.89;64.33
8280;BME280;8335;42.646;23.380;2024-01-15T13:02:16;142780.72;;;4.76;65.95
8280;BME280;8335;42.646;23.380;2024-01-15T13:04:43;142757.22;;;4.66;65.63
8280;BME280;8335;42.646;23.380;2024-01-15T13:07:10;142768.31;;;4.70;64.97